createdAt,value
2018-06-14T00:02:08.969Z,99.90
2018-06-14T00:07:12.072Z,99.90
2018-06-14T00:12:15.088Z,99.90
2018-06-14T00:17:18.165Z,99.90
2018-06-14T00:22:21.217Z,99.90
2018-06-14T00:27:24.234Z,99.90
2018-06-14T00:32:27.539Z,99.90
2018-06-14T00:37:30.551Z,99.90
2018-06-14T00:42:34.241Z,99.90
2018-06-14T00:47:37.262Z,99.90
2018-06-14T00:52:40.463Z,99.90
2018-06-14T00:57:43.523Z,99.90
2018-06-14T01:02:46.688Z,99.90
2018-06-14T01:07:49.714Z,99.90
2018-06-14T01:12:52.922Z,99.90
2018-06-14T01:17:55.987Z,99.70
2018-06-14T01:22:59.048Z,99.60
2018-06-14T01:28:02.147Z,99.90
2018-06-14T01:33:05.177Z,99.80
2018-06-14T01:38:23.010Z,99.80
2018-06-14T01:43:26.062Z,99.70
2018-06-14T01:48:29.076Z,99.60
2018-06-14T01:53:32.104Z,99.90
2018-06-14T01:58:35.139Z,99.80
2018-06-14T02:03:38.155Z,99.70
2018-06-14T02:08:41.180Z,99.90
2018-06-14T02:13:44.205Z,99.80
2018-06-14T02:18:47.253Z,99.70
2018-06-14T02:23:50.298Z,99.30
2018-06-14T02:28:53.321Z,98.90
2018-06-14T02:33:56.458Z,99.00
2018-06-14T02:38:59.531Z,99.20
2018-06-14T02:44:02.780Z,99.20
2018-06-14T02:49:05.808Z,99.10
2018-06-14T02:54:08.821Z,98.70
2018-06-14T02:59:11.920Z,98.30
2018-06-14T03:04:14.967Z,98.40
2018-06-14T03:09:17.984Z,98.40
2018-06-14T03:19:24.040Z,98.30
2018-06-14T03:24:27.064Z,98.00
2018-06-14T03:29:30.118Z,98.30
2018-06-14T03:34:33.616Z,98.30
2018-06-14T03:39:38.035Z,98.50
2018-06-14T03:44:41.167Z,98.70
2018-06-14T03:49:44.194Z,98.80
2018-06-14T03:54:48.438Z,99.10
2018-06-14T04:04:54.303Z,99.40
2018-06-14T04:09:57.512Z,99.20
2018-06-14T04:15:00.555Z,99.20
2018-06-14T04:20:03.635Z,99.50
2018-06-14T04:25:06.703Z,99.70
2018-06-14T04:30:09.740Z,99.90
2018-06-14T04:35:12.759Z,99.90
2018-06-14T04:40:15.908Z,99.90
2018-06-14T04:45:18.939Z,99.90
2018-06-14T04:50:21.971Z,99.70
2018-06-14T04:55:25.005Z,99.30
2018-06-14T05:00:28.770Z,98.50
2018-06-14T05:05:31.969Z,98.30
2018-06-14T05:10:35.160Z,97.70
2018-06-14T05:15:38.170Z,97.60
2018-06-14T05:20:41.344Z,98.30
2018-06-14T05:25:44.380Z,98.60
2018-06-14T05:30:47.393Z,99.20
2018-06-14T05:35:50.495Z,99.20
2018-06-14T05:40:53.652Z,99.80
2018-06-14T05:45:56.677Z,99.50
2018-06-14T05:50:59.992Z,99.50
2018-06-14T05:56:03.059Z,99.70
2018-06-14T06:01:06.073Z,99.60
2018-06-14T06:06:09.114Z,99.40
2018-06-14T06:11:12.140Z,99.70
2018-06-14T06:16:15.773Z,99.60
2018-06-14T06:21:18.848Z,99.20
2018-06-14T06:26:21.972Z,98.90
2018-06-14T06:31:25.119Z,98.50
2018-06-14T06:36:28.201Z,98.60
2018-06-14T06:41:31.327Z,97.90
2018-06-14T06:46:34.408Z,97.60
2018-06-14T06:51:37.831Z,97.00
2018-06-14T06:56:40.889Z,96.60
2018-06-14T07:01:44.328Z,94.90
2018-06-14T07:06:47.436Z,93.30
2018-06-14T07:11:50.671Z,92.90
2018-06-14T07:16:53.739Z,91.90
2018-06-14T07:21:57.028Z,90.50
2018-06-14T07:27:00.011Z,89.90
2018-06-14T07:32:03.335Z,86.30
2018-06-14T07:37:06.552Z,88.60
2018-06-14T07:42:09.656Z,87.50
2018-06-14T07:47:12.669Z,90.70
2018-06-14T07:52:15.700Z,91.50
2018-06-14T07:57:18.717Z,91.60
2018-06-14T08:02:21.736Z,90.10
2018-06-14T08:07:24.759Z,91.20
2018-06-14T08:12:27.862Z,90.70
2018-06-14T08:22:33.962Z,92.40
2018-06-14T08:27:36.978Z,88.30
2018-06-14T08:32:40.028Z,84.90
2018-06-14T08:37:43.105Z,84.60
2018-06-14T08:42:46.124Z,87.80
2018-06-14T08:47:49.247Z,89.10
2018-06-14T08:52:52.606Z,85.20
2018-06-14T08:57:55.654Z,81.40
2018-06-14T09:02:58.664Z,84.50
2018-06-14T09:08:01.691Z,83.20
2018-06-14T09:13:04.776Z,83.60
2018-06-14T09:18:07.853Z,84.80
2018-06-14T09:23:10.919Z,82.40
2018-06-14T09:28:13.951Z,85.40
2018-06-14T09:33:17.468Z,86.10
2018-06-14T09:38:20.672Z,88.00
2018-06-14T09:43:23.872Z,83.40
2018-06-14T09:48:27.031Z,84.80
2018-06-14T09:53:30.079Z,86.60
2018-06-14T09:58:33.230Z,86.70
2018-06-14T10:03:36.330Z,88.10
2018-06-14T10:08:39.445Z,87.90
2018-06-14T10:13:42.472Z,81.60
2018-06-14T10:18:45.573Z,80.10
2018-06-14T10:23:48.609Z,84.80
2018-06-14T10:28:51.774Z,84.80
2018-06-14T10:33:54.899Z,86.00
2018-06-14T10:38:58.023Z,85.10
2018-06-14T10:44:01.040Z,86.90
2018-06-14T10:49:04.123Z,84.80
2018-06-14T10:54:07.199Z,84.00
2018-06-14T10:59:10.227Z,83.80
2018-06-14T11:04:13.315Z,84.50
2018-06-14T11:09:16.352Z,83.30
2018-06-14T11:14:19.727Z,81.70
2018-06-14T11:19:22.758Z,82.00
2018-06-14T11:24:25.836Z,81.10
2018-06-14T11:29:28.888Z,79.50
2018-06-14T11:39:35.024Z,81.20
2018-06-14T11:44:38.076Z,81.30
2018-06-14T11:49:41.151Z,79.30
2018-06-14T11:54:44.611Z,76.60
2018-06-14T11:59:51.889Z,81.10
2018-06-14T12:04:54.931Z,77.80
2018-06-14T12:09:58.218Z,82.40
2018-06-14T12:15:01.233Z,80.10
2018-06-14T12:20:04.337Z,81.10
2018-06-14T12:25:07.481Z,78.70
2018-06-14T12:30:10.574Z,77.30
2018-06-14T12:35:13.670Z,77.10
2018-06-14T12:40:16.800Z,77.10
2018-06-14T12:45:19.947Z,80.20
2018-06-14T12:50:24.229Z,79.50
2018-06-14T12:55:27.471Z,76.50
2018-06-14T13:00:30.523Z,77.50
2018-06-14T13:05:33.597Z,76.40
2018-06-14T13:10:36.656Z,77.20
2018-06-14T13:15:39.762Z,75.20
2018-06-14T13:20:42.934Z,75.40
2018-06-14T13:25:45.952Z,74.50
2018-06-14T13:30:48.975Z,76.40
2018-06-14T13:35:52.065Z,73.70
2018-06-14T13:40:55.081Z,75.30
2018-06-14T13:45:58.216Z,74.50
2018-06-14T13:51:01.266Z,72.60
2018-06-14T13:56:04.323Z,71.70
2018-06-14T14:01:07.446Z,72.30
2018-06-14T14:06:10.377Z,71.50
2018-06-14T14:11:13.449Z,69.40
2018-06-14T14:16:16.508Z,71.70
2018-06-14T14:21:19.660Z,70.00
2018-06-14T14:26:22.992Z,71.90
2018-06-14T14:31:32.768Z,70.40
2018-06-14T14:36:36.874Z,71.10
2018-06-14T14:41:39.938Z,71.40
2018-06-14T14:46:42.983Z,70.80
2018-06-14T14:51:46.018Z,70.80
2018-06-14T14:56:49.108Z,70.60
2018-06-14T15:01:52.220Z,70.60
2018-06-14T15:06:55.274Z,70.40
2018-06-14T15:11:58.326Z,71.60
2018-06-14T15:17:01.385Z,69.50
2018-06-14T15:22:04.412Z,68.60
2018-06-14T15:27:07.485Z,69.90
2018-06-14T15:32:10.516Z,68.90
2018-06-14T15:37:13.673Z,69.60
2018-06-14T15:42:16.689Z,67.20
2018-06-14T15:47:19.715Z,66.70
2018-06-14T15:52:22.742Z,68.00
2018-06-14T15:57:25.812Z,65.30
2018-06-14T16:02:28.830Z,68.00
2018-06-14T16:07:31.987Z,65.70
2018-06-14T16:12:35.088Z,66.90
2018-06-14T16:17:38.102Z,64.40
2018-06-14T16:22:41.136Z,64.10
2018-06-14T16:27:44.253Z,65.60
2018-06-14T16:32:47.335Z,66.70
2018-06-14T16:37:50.360Z,65.00
2018-06-14T16:42:53.415Z,64.40
2018-06-14T16:52:59.399Z,64.80
2018-06-14T16:58:02.538Z,66.70
2018-06-14T17:03:05.588Z,66.10
2018-06-14T17:08:08.654Z,66.30
2018-06-14T17:13:11.905Z,67.20
2018-06-14T17:18:15.086Z,66.30
2018-06-14T17:23:18.125Z,66.90
2018-06-14T17:28:21.393Z,65.90
2018-06-14T17:33:24.497Z,65.40
2018-06-14T17:38:27.596Z,66.20
2018-06-14T17:43:30.968Z,65.90
2018-06-14T17:48:35.195Z,66.60
2018-06-14T17:53:38.262Z,66.20
2018-06-14T17:58:41.409Z,66.90
2018-06-14T18:03:44.541Z,66.90
2018-06-14T18:08:47.737Z,67.50
2018-06-14T18:13:50.808Z,68.60
2018-06-14T18:18:53.838Z,68.60
2018-06-14T18:23:56.867Z,68.60
2018-06-14T18:28:59.886Z,70.10
2018-06-14T18:34:02.965Z,70.70
2018-06-14T18:39:08.859Z,71.70
2018-06-14T18:44:11.975Z,73.10
2018-06-14T18:49:14.988Z,72.50
2018-06-14T18:54:18.167Z,73.90
2018-06-14T18:59:22.096Z,74.80
2018-06-14T19:04:25.139Z,75.10
2018-06-14T19:09:28.140Z,77.20
2018-06-14T19:14:31.205Z,78.10
2018-06-14T19:19:34.237Z,79.40
2018-06-14T19:24:37.323Z,79.60
2018-06-14T19:34:43.457Z,84.10
2018-06-14T19:39:46.552Z,86.20
2018-06-14T19:44:49.702Z,89.30
2018-06-14T19:49:52.802Z,91.80
2018-06-14T19:54:55.900Z,92.20
2018-06-14T19:59:58.950Z,92.90
2018-06-14T20:05:02.079Z,92.80
2018-06-14T20:10:05.136Z,93.00
2018-06-14T20:15:08.181Z,92.90
2018-06-14T20:20:11.610Z,93.00
2018-06-14T20:25:14.761Z,93.30
2018-06-14T20:30:17.807Z,94.00
2018-06-14T20:35:20.940Z,95.10
2018-06-14T20:40:23.919Z,96.10
2018-06-14T20:45:26.963Z,97.20
2018-06-14T20:50:30.024Z,98.10
2018-06-14T20:55:33.043Z,98.00
2018-06-14T21:00:36.108Z,98.20
2018-06-14T21:05:39.149Z,98.10
2018-06-14T21:10:42.228Z,99.90
2018-06-14T21:15:45.327Z,99.90
2018-06-14T21:20:48.654Z,99.90
2018-06-14T21:25:51.762Z,99.90
2018-06-14T21:30:54.795Z,99.90
2018-06-14T21:35:57.867Z,99.90
2018-06-14T21:41:00.923Z,99.90
2018-06-14T21:46:04.455Z,99.90
2018-06-14T21:51:07.536Z,99.90
2018-06-14T21:56:10.584Z,99.90
2018-06-14T22:01:13.610Z,99.90
2018-06-14T22:06:16.977Z,99.90
2018-06-14T22:11:20.013Z,99.90
2018-06-14T22:16:23.513Z,99.90
2018-06-14T22:21:26.663Z,99.90
2018-06-14T22:26:29.716Z,99.90
2018-06-14T22:31:32.778Z,99.90
2018-06-14T22:36:35.857Z,99.90
2018-06-14T22:41:38.949Z,99.90
2018-06-14T22:46:41.976Z,99.90
2018-06-14T22:52:56.435Z,99.90
2018-06-14T22:57:59.445Z,99.90
2018-06-14T23:03:02.462Z,99.90
2018-06-14T23:08:05.523Z,99.90
2018-06-14T23:13:09.794Z,99.90
2018-06-14T23:18:12.843Z,99.90
2018-06-14T23:23:15.997Z,99.90
2018-06-14T23:28:19.061Z,99.90
2018-06-14T23:33:22.126Z,99.90
2018-06-14T23:38:25.237Z,99.90
2018-06-14T23:43:28.571Z,99.90
2018-06-14T23:48:31.661Z,99.90
2018-06-14T23:53:34.794Z,99.90
2018-06-14T23:58:37.823Z,99.90
